sensor_id;sensor_type;location;lat;lon;timestamp;P1;durP1;ratioP1;P2;durP2;ratioP2
466;SDS011;72290;48.808;9.222;2024-03-23T06:00:17;23.67;;;10.50;;
466;SDS011;72290;48.808;9.222;2024-03-23T06:02:43;18.20;;;9.10;;
466;SDS011;72290;48.808;9.222;2024-03-23T06:05:11;16.93;;;8.60;;
466;SDS011;72290;48.808;9.222;2024-03-23T06:07:37;13.77;;;6.47;;
466;SDS011;72290;48.808;9.222;2024-03-23T06:10:04;10.93;;;5.20;;
466;SDS011;72290;48.808;9.222;2024-03-23T06:12:30;7.10;;;4.10;;
466;SDS011;72290;48.808;9.222;2024-03-23T06:14:56;6.03;;;4.20;;
466;SDS011;72290;48.808;9.222;2024-03-23T06:17:22;7.40;;;3.80;;
466;SDS011;72290;48.808;9.222;2024-03-23T06:19:48;9.00;;;3.70;;
466;SDS011;72290;48.808;9.222;2024-03-23T06:22:15;5.00;;;3.90;;
466;SDS011;72290;48.808;9.222;2024-03-23T06:24:41;5.53;;;3.53;;
466;SDS011;72290;48.808;9.222;2024-03-23T06:27:06;4.60;;;2.90;;
466;SDS011;72290;48.808;9.222;2024-03-23T06:29:32;7.50;;;3.90;;
466;SDS011;72290;48.808;9.222;2024-03-23T06:31:58;5.43;;;3.53;;
466;SDS011;72290;48.808;9.222;2024-03-23T06:34:24;5.13;;;2.80;;
466;SDS011;72290;48.808;9.222;2024-03-23T06:36:50;8.30;;;3.03;;
466;SDS011;72290;48.808;9.222;2024-03-23T06:39:17;5.20;;;3.30;;
466;SDS011;72290;48.808;9.222;2024-03-23T06:41:43;4.23;;;2.47;;
466;SDS011;72290;48.808;9.222;2024-03-23T06:44:08;5.17;;;3.00;;
466;SDS011;72290;48.808;9.222;2024-03-23T06:46:34;3.93;;;2.37;;
466;SDS011;72290;48.808;9.222;2024-03-23T06:49:00;2.70;;;2.07;;
466;SDS011;72290;48.808;9.222;2024-03-23T06:51:26;3.93;;;2.10;;
466;SDS011;72290;48.808;9.222;2024-03-23T06:53:52;3.40;;;1.80;;
466;SDS011;72290;48.808;9.222;2024-03-23T06:56:18;3.27;;;1.80;;
466;SDS011;72290;48.808;9.222;2024-03-23T06:58:44;1.50;;;1.33;;
466;SDS011;72290;48.808;9.222;2024-03-23T07:01:10;1.43;;;1.40;;
466;SDS011;72290;48.808;9.222;2024-03-23T07:03:36;1.53;;;1.40;;
466;SDS011;72290;48.808;9.222;2024-03-23T07:06:02;1.70;;;1.30;;
466;SDS011;72290;48.808;9.222;2024-03-23T07:08:28;1.40;;;1.10;;
466;SDS011;72290;48.808;9.222;2024-03-23T07:10:54;1.40;;;1.23;;
466;SDS011;72290;48.808;9.222;2024-03-23T07:13:20;2.00;;;1.07;;
466;SDS011;72290;48.808;9.222;2024-03-23T07:15:51;1.00;;;0.90;;
466;SDS011;72290;48.808;9.222;2024-03-23T07:18:17;0.93;;;0.83;;
466;SDS011;72290;48.808;9.222;2024-03-23T07:20:51;1.60;;;1.00;;
466;SDS011;72290;48.808;9.222;2024-03-23T07:23:17;1.33;;;1.20;;
466;SDS011;72290;48.808;9.222;2024-03-23T07:25:43;2.13;;;0.90;;
466;SDS011;72290;48.808;9.222;2024-03-23T07:28:09;0.93;;;0.83;;
466;SDS011;72290;48.808;9.222;2024-03-23T07:30:35;1.20;;;1.13;;
466;SDS011;72290;48.808;9.222;2024-03-23T07:33:01;1.10;;;1.00;;
466;SDS011;72290;48.808;9.222;2024-03-23T07:35:27;1.20;;;1.10;;
466;SDS011;72290;48.808;9.222;2024-03-23T07:37:53;0.90;;;0.80;;
466;SDS011;72290;48.808;9.222;2024-03-23T07:40:19;1.00;;;0.90;;
466;SDS011;72290;48.808;9.222;2024-03-23T07:42:45;1.43;;;1.30;;
466;SDS011;72290;48.808;9.222;2024-03-23T07:45:11;0.90;;;0.80;;
466;SDS011;72290;48.808;9.222;2024-03-23T07:47:37;3.70;;;0.90;;
466;SDS011;72290;48.808;9.222;2024-03-23T07:50:02;1.13;;;1.03;;
466;SDS011;72290;48.808;9.222;2024-03-23T07:52:28;2.10;;;1.00;;
466;SDS011;72290;48.808;9.222;2024-03-23T07:54:54;1.53;;;1.20;;
466;SDS011;72290;48.808;9.222;2024-03-23T07:57:20;1.17;;;0.90;;
466;SDS011;72290;48.808;9.222;2024-03-23T07:59:46;1.47;;;1.43;;
466;SDS011;72290;48.808;9.222;2024-03-23T08:02:12;1.20;;;1.13;;
466;SDS011;72290;48.808;9.222;2024-03-23T08:04:38;0.90;;;0.80;;
466;SDS011;72290;48.808;9.222;2024-03-23T08:07:04;1.90;;;0.93;;
466;SDS011;72290;48.808;9.222;2024-03-23T08:09:30;1.80;;;1.10;;
466;SDS011;72290;48.808;9.222;2024-03-23T08:11:56;1.10;;;1.00;;
466;SDS011;72290;48.808;9.222;2024-03-23T08:14:22;1.13;;;1.03;;
466;SDS011;72290;48.808;9.222;2024-03-23T08:16:48;1.13;;;1.03;;
466;SDS011;72290;48.808;9.222;2024-03-23T08:19:16;1.03;;;1.00;;
466;SDS011;72290;48.808;9.222;2024-03-23T08:21:42;1.10;;;1.00;;
466;SDS011;72290;48.808;9.222;2024-03-23T08:24:08;1.93;;;1.20;;
466;SDS011;72290;48.808;9.222;2024-03-23T08:26:34;1.30;;;1.20;;
466;SDS011;72290;48.808;9.222;2024-03-23T08:29:02;2.93;;;1.77;;
466;SDS011;72290;48.808;9.222;2024-03-23T08:31:28;1.20;;;1.10;;
466;SDS011;72290;48.808;9.222;2024-03-23T08:33:54;1.73;;;1.10;;
466;SDS011;72290;48.808;9.222;2024-03-23T08:36:20;3.30;;;1.80;;
466;SDS011;72290;48.808;9.222;2024-03-23T08:38:46;1.23;;;1.00;;
466;SDS011;72290;48.808;9.222;2024-03-23T08:41:12;1.10;;;1.00;;
466;SDS011;72290;48.808;9.222;2024-03-23T08:43:39;1.43;;;1.33;;
466;SDS011;72290;48.808;9.222;2024-03-23T08:48:31;2.83;;;1.10;;
466;SDS011;72290;48.808;9.222;2024-03-23T08:51:08;2.83;;;1.17;;
466;SDS011;72290;48.808;9.222;2024-03-23T08:53:37;9.00;;;1.43;;
466;SDS011;72290;48.808;9.222;2024-03-23T08:56:03;1.57;;;1.20;;
466;SDS011;72290;48.808;9.222;2024-03-23T08:58:30;5.53;;;2.03;;
466;SDS011;72290;48.808;9.222;2024-03-23T09:00:57;2.93;;;1.70;;
466;SDS011;72290;48.808;9.222;2024-03-23T09:03:28;13.30;;;3.47;;
466;SDS011;72290;48.808;9.222;2024-03-23T09:05:54;5.33;;;2.63;;
466;SDS011;72290;48.808;9.222;2024-03-23T09:08:20;5.07;;;2.30;;
466;SDS011;72290;48.808;9.222;2024-03-23T09:10:47;6.93;;;2.60;;
466;SDS011;72290;48.808;9.222;2024-03-23T09:13:13;10.03;;;3.67;;
466;SDS011;72290;48.808;9.222;2024-03-23T09:15:49;4.50;;;2.80;;
466;SDS011;72290;48.808;9.222;2024-03-23T09:18:15;6.90;;;2.73;;
466;SDS011;72290;48.808;9.222;2024-03-23T09:20:41;6.53;;;2.60;;
466;SDS011;72290;48.808;9.222;2024-03-23T09:23:07;10.80;;;2.83;;
466;SDS011;72290;48.808;9.222;2024-03-23T09:25:37;13.57;;;3.43;;
466;SDS011;72290;48.808;9.222;2024-03-23T09:28:03;9.67;;;3.20;;
466;SDS011;72290;48.808;9.222;2024-03-23T09:30:29;8.07;;;3.50;;
466;SDS011;72290;48.808;9.222;2024-03-23T09:32:55;4.67;;;2.77;;
466;SDS011;72290;48.808;9.222;2024-03-23T09:35:21;8.07;;;4.83;;
466;SDS011;72290;48.808;9.222;2024-03-23T09:37:47;7.43;;;2.97;;
466;SDS011;72290;48.808;9.222;2024-03-23T09:40:13;6.80;;;3.30;;
466;SDS011;72290;48.808;9.222;2024-03-23T09:42:39;10.67;;;3.17;;
466;SDS011;72290;48.808;9.222;2024-03-23T09:45:11;6.77;;;2.80;;
466;SDS011;72290;48.808;9.222;2024-03-23T09:47:42;6.60;;;3.30;;
466;SDS011;72290;48.808;9.222;2024-03-23T09:50:08;7.27;;;3.27;;
466;SDS011;72290;48.808;9.222;2024-03-23T09:52:34;6.83;;;3.00;;
466;SDS011;72290;48.808;9.222;2024-03-23T09:55:00;8.40;;;3.50;;
466;SDS011;72290;48.808;9.222;2024-03-23T09:57:26;5.50;;;3.00;;
466;SDS011;72290;48.808;9.222;2024-03-23T09:59:52;3.73;;;2.37;;
466;SDS011;72290;48.808;9.222;2024-03-23T10:02:19;5.80;;;3.30;;
466;SDS011;72290;48.808;9.222;2024-03-23T10:04:46;6.97;;;3.47;;
466;SDS011;72290;48.808;9.222;2024-03-23T10:07:12;12.27;;;3.77;;
466;SDS011;72290;48.808;9.222;2024-03-23T10:09:38;4.97;;;3.00;;
466;SDS011;72290;48.808;9.222;2024-03-23T10:12:11;14.30;;;4.33;;
466;SDS011;72290;48.808;9.222;2024-03-23T10:14:39;8.50;;;3.23;;
466;SDS011;72290;48.808;9.222;2024-03-23T10:17:15;8.57;;;3.33;;
466;SDS011;72290;48.808;9.222;2024-03-23T10:19:47;5.20;;;2.83;;
466;SDS011;72290;48.808;9.222;2024-03-23T10:22:23;7.87;;;4.37;;
466;SDS011;72290;48.808;9.222;2024-03-23T10:24:50;8.70;;;3.53;;
466;SDS011;72290;48.808;9.222;2024-03-23T10:27:17;14.00;;;4.57;;
466;SDS011;72290;48.808;9.222;2024-03-23T10:29:44;10.33;;;4.20;;
466;SDS011;72290;48.808;9.222;2024-03-23T10:32:13;8.00;;;4.33;;
466;SDS011;72290;48.808;9.222;2024-03-23T10:34:40;9.57;;;3.80;;
466;SDS011;72290;48.808;9.222;2024-03-23T10:37:06;10.63;;;3.93;;
466;SDS011;72290;48.808;9.222;2024-03-23T10:39:33;10.20;;;4.13;;
466;SDS011;72290;48.808;9.222;2024-03-23T10:42:03;10.70;;;3.73;;
466;SDS011;72290;48.808;9.222;2024-03-23T10:44:29;11.17;;;3.70;;
466;SDS011;72290;48.808;9.222;2024-03-23T10:46:56;10.10;;;3.93;;
466;SDS011;72290;48.808;9.222;2024-03-23T10:49:34;14.83;;;4.27;;
466;SDS011;72290;48.808;9.222;2024-03-23T10:52:01;9.70;;;4.27;;
466;SDS011;72290;48.808;9.222;2024-03-23T10:54:27;8.93;;;4.00;;
466;SDS011;72290;48.808;9.222;2024-03-23T10:57:11;7.00;;;3.43;;
466;SDS011;72290;48.808;9.222;2024-03-23T10:59:38;6.60;;;3.60;;
466;SDS011;72290;48.808;9.222;2024-03-23T11:02:05;14.97;;;4.90;;
466;SDS011;72290;48.808;9.222;2024-03-23T11:04:35;13.00;;;4.33;;
466;SDS011;72290;48.808;9.222;2024-03-23T11:07:03;18.30;;;5.67;;
466;SDS011;72290;48.808;9.222;2024-03-23T11:09:49;13.93;;;4.90;;
466;SDS011;72290;48.808;9.222;2024-03-23T11:14:49;6.80;;;4.17;;
466;SDS011;72290;48.808;9.222;2024-03-23T11:17:19;7.90;;;3.73;;
466;SDS011;72290;48.808;9.222;2024-03-23T11:19:52;7.40;;;3.10;;
466;SDS011;72290;48.808;9.222;2024-03-23T11:25:12;7.93;;;3.50;;
466;SDS011;72290;48.808;9.222;2024-03-23T11:27:38;7.60;;;3.80;;
466;SDS011;72290;48.808;9.222;2024-03-23T11:30:17;7.80;;;3.20;;
466;SDS011;72290;48.808;9.222;2024-03-23T11:32:44;5.67;;;3.50;;
466;SDS011;72290;48.808;9.222;2024-03-23T11:35:10;4.90;;;3.10;;
466;SDS011;72290;48.808;9.222;2024-03-23T11:37:36;3.87;;;2.47;;
466;SDS011;72290;48.808;9.222;2024-03-23T11:40:18;6.77;;;2.57;;
466;SDS011;72290;48.808;9.222;2024-03-23T11:42:44;6.90;;;3.60;;
466;SDS011;72290;48.808;9.222;2024-03-23T11:45:10;4.13;;;2.13;;
466;SDS011;72290;48.808;9.222;2024-03-23T11:47:37;10.90;;;3.03;;
466;SDS011;72290;48.808;9.222;2024-03-23T11:50:03;6.30;;;2.67;;
466;SDS011;72290;48.808;9.222;2024-03-23T11:52:29;5.73;;;2.23;;
466;SDS011;72290;48.808;9.222;2024-03-23T11:55:05;6.43;;;2.60;;
466;SDS011;72290;48.808;9.222;2024-03-23T11:57:32;5.77;;;2.67;;
466;SDS011;72290;48.808;9.222;2024-03-23T11:59:58;12.83;;;2.97;;
466;SDS011;72290;48.808;9.222;2024-03-23T12:02:24;5.60;;;2.53;;
466;SDS011;72290;48.808;9.222;2024-03-23T12:04:51;6.50;;;2.60;;
466;SDS011;72290;48.808;9.222;2024-03-23T12:07:18;6.20;;;2.57;;
466;SDS011;72290;48.808;9.222;2024-03-23T12:09:46;7.97;;;2.53;;
466;SDS011;72290;48.808;9.222;2024-03-23T12:12:15;6.17;;;2.50;;
466;SDS011;72290;48.808;9.222;2024-03-23T12:17:14;8.17;;;2.30;;
466;SDS011;72290;48.808;9.222;2024-03-23T12:19:42;9.33;;;2.20;;
466;SDS011;72290;48.808;9.222;2024-03-23T12:22:09;10.97;;;2.87;;
466;SDS011;72290;48.808;9.222;2024-03-23T12:24:35;4.50;;;2.13;;
466;SDS011;72290;48.808;9.222;2024-03-23T12:27:02;10.77;;;2.03;;
466;SDS011;72290;48.808;9.222;2024-03-23T12:29:28;4.43;;;2.40;;
466;SDS011;72290;48.808;9.222;2024-03-23T12:31:56;15.33;;;2.00;;
466;SDS011;72290;48.808;9.222;2024-03-23T12:34:22;12.23;;;2.40;;
466;SDS011;72290;48.808;9.222;2024-03-23T12:36:48;8.00;;;2.37;;
466;SDS011;72290;48.808;9.222;2024-03-23T12:39:14;4.13;;;2.00;;
466;SDS011;72290;48.808;9.222;2024-03-23T12:41:40;10.37;;;2.83;;
466;SDS011;72290;48.808;9.222;2024-03-23T12:44:06;5.67;;;2.20;;
466;SDS011;72290;48.808;9.222;2024-03-23T12:46:34;4.93;;;2.13;;
466;SDS011;72290;48.808;9.222;2024-03-23T12:49:00;9.17;;;2.97;;
466;SDS011;72290;48.808;9.222;2024-03-23T12:51:26;11.13;;;3.70;;
466;SDS011;72290;48.808;9.222;2024-03-23T12:53:51;6.33;;;2.70;;
466;SDS011;72290;48.808;9.222;2024-03-23T12:56:17;9.30;;;3.20;;
466;SDS011;72290;48.808;9.222;2024-03-23T12:58:43;7.17;;;2.90;;
466;SDS011;72290;48.808;9.222;2024-03-23T13:01:09;6.77;;;2.83;;
466;SDS011;72290;48.808;9.222;2024-03-23T13:03:35;6.47;;;2.50;;
466;SDS011;72290;48.808;9.222;2024-03-23T13:06:02;10.57;;;3.40;;
466;SDS011;72290;48.808;9.222;2024-03-23T13:08:32;8.73;;;2.40;;
466;SDS011;72290;48.808;9.222;2024-03-23T13:10:58;10.13;;;2.70;;
466;SDS011;72290;48.808;9.222;2024-03-23T13:13:24;15.43;;;3.60;;
466;SDS011;72290;48.808;9.222;2024-03-23T13:15:50;12.70;;;2.63;;
466;SDS011;72290;48.808;9.222;2024-03-23T13:18:16;9.60;;;2.63;;
466;SDS011;72290;48.808;9.222;2024-03-23T13:20:42;11.13;;;3.30;;
466;SDS011;72290;48.808;9.222;2024-03-23T13:23:08;10.93;;;3.20;;
466;SDS011;72290;48.808;9.222;2024-03-23T13:25:34;7.37;;;2.63;;
466;SDS011;72290;48.808;9.222;2024-03-23T13:28:01;17.37;;;3.97;;
466;SDS011;72290;48.808;9.222;2024-03-23T13:30:27;11.00;;;2.77;;
466;SDS011;72290;48.808;9.222;2024-03-23T13:32:53;10.87;;;3.20;;
466;SDS011;72290;48.808;9.222;2024-03-23T13:35:19;12.17;;;3.20;;
466;SDS011;72290;48.808;9.222;2024-03-23T13:37:45;7.37;;;3.40;;
466;SDS011;72290;48.808;9.222;2024-03-23T13:40:11;7.40;;;2.73;;
466;SDS011;72290;48.808;9.222;2024-03-23T13:42:37;4.17;;;2.60;;
466;SDS011;72290;48.808;9.222;2024-03-23T13:45:03;9.73;;;3.10;;
466;SDS011;72290;48.808;9.222;2024-03-23T13:47:29;3.97;;;2.30;;
466;SDS011;72290;48.808;9.222;2024-03-23T13:49:55;5.37;;;2.30;;
466;SDS011;72290;48.808;9.222;2024-03-23T13:52:21;8.60;;;3.13;;
466;SDS011;72290;48.808;9.222;2024-03-23T13:54:51;9.20;;;2.00;;
466;SDS011;72290;48.808;9.222;2024-03-23T13:57:17;5.50;;;2.33;;
466;SDS011;72290;48.808;9.222;2024-03-23T13:59:46;13.80;;;2.77;;
466;SDS011;72290;48.808;9.222;2024-03-23T14:02:12;6.27;;;2.30;;
466;SDS011;72290;48.808;9.222;2024-03-23T14:04:39;9.83;;;2.17;;
466;SDS011;72290;48.808;9.222;2024-03-23T14:07:05;1.77;;;1.63;;
466;SDS011;72290;48.808;9.222;2024-03-23T14:09:32;8.60;;;2.30;;
466;SDS011;72290;48.808;9.222;2024-03-23T14:11:58;5.13;;;1.90;;
466;SDS011;72290;48.808;9.222;2024-03-23T14:14:25;8.63;;;2.27;;
466;SDS011;72290;48.808;9.222;2024-03-23T14:16:51;4.10;;;1.97;;
466;SDS011;72290;48.808;9.222;2024-03-23T14:19:18;12.40;;;3.10;;
466;SDS011;72290;48.808;9.222;2024-03-23T14:21:44;8.77;;;2.47;;
466;SDS011;72290;48.808;9.222;2024-03-23T14:24:10;5.63;;;2.43;;
466;SDS011;72290;48.808;9.222;2024-03-23T14:26:36;5.33;;;2.17;;
466;SDS011;72290;48.808;9.222;2024-03-23T14:29:02;4.57;;;1.93;;
466;SDS011;72290;48.808;9.222;2024-03-23T14:31:28;5.10;;;2.00;;
466;SDS011;72290;48.808;9.222;2024-03-23T14:33:54;3.30;;;2.07;;
466;SDS011;72290;48.808;9.222;2024-03-23T14:36:20;4.60;;;1.70;;
466;SDS011;72290;48.808;9.222;2024-03-23T14:38:47;2.40;;;1.70;;
466;SDS011;72290;48.808;9.222;2024-03-23T14:41:13;2.47;;;2.03;;
466;SDS011;72290;48.808;9.222;2024-03-23T14:43:39;2.73;;;2.53;;
466;SDS011;72290;48.808;9.222;2024-03-23T14:48:35;3.63;;;1.83;;
466;SDS011;72290;48.808;9.222;2024-03-23T14:51:01;4.30;;;1.80;;
466;SDS011;72290;48.808;9.222;2024-03-23T14:53:33;2.17;;;1.60;;
466;SDS011;72290;48.808;9.222;2024-03-23T14:55:59;3.57;;;2.03;;
466;SDS011;72290;48.808;9.222;2024-03-23T14:58:26;5.50;;;1.80;;
466;SDS011;72290;48.808;9.222;2024-03-23T15:00:52;7.47;;;1.63;;
466;SDS011;72290;48.808;9.222;2024-03-23T15:03:18;6.33;;;2.40;;
466;SDS011;72290;48.808;9.222;2024-03-23T15:05:54;5.40;;;2.17;;
466;SDS011;72290;48.808;9.222;2024-03-23T15:08:20;3.87;;;2.13;;
466;SDS011;72290;48.808;9.222;2024-03-23T15:10:46;5.90;;;2.07;;
466;SDS011;72290;48.808;9.222;2024-03-23T15:13:12;9.00;;;2.33;;
466;SDS011;72290;48.808;9.222;2024-03-23T15:15:39;5.43;;;2.30;;
466;SDS011;72290;48.808;9.222;2024-03-23T15:18:08;1.93;;;1.83;;
466;SDS011;72290;48.808;9.222;2024-03-23T15:20:34;2.07;;;1.70;;
466;SDS011;72290;48.808;9.222;2024-03-23T15:23:01;2.97;;;1.83;;
466;SDS011;72290;48.808;9.222;2024-03-23T15:25:27;4.00;;;1.67;;
466;SDS011;72290;48.808;9.222;2024-03-23T15:27:53;6.40;;;1.40;;
466;SDS011;72290;48.808;9.222;2024-03-23T15:30:20;2.73;;;1.60;;
466;SDS011;72290;48.808;9.222;2024-03-23T15:32:46;2.23;;;1.37;;
466;SDS011;72290;48.808;9.222;2024-03-23T15:35:12;1.80;;;1.40;;
466;SDS011;72290;48.808;9.222;2024-03-23T15:37:38;1.60;;;1.30;;
466;SDS011;72290;48.808;9.222;2024-03-23T15:40:05;5.40;;;1.47;;
466;SDS011;72290;48.808;9.222;2024-03-23T15:42:31;6.80;;;1.50;;
466;SDS011;72290;48.808;9.222;2024-03-23T15:44:57;4.33;;;1.90;;
466;SDS011;72290;48.808;9.222;2024-03-23T15:47:23;3.47;;;1.30;;
466;SDS011;72290;48.808;9.222;2024-03-23T15:49:49;3.20;;;1.33;;
466;SDS011;72290;48.808;9.222;2024-03-23T15:52:18;2.23;;;1.40;;
466;SDS011;72290;48.808;9.222;2024-03-23T15:54:44;1.27;;;1.27;;
466;SDS011;72290;48.808;9.222;2024-03-23T15:57:10;2.20;;;1.60;;
466;SDS011;72290;48.808;9.222;2024-03-23T15:59:38;3.97;;;1.60;;
466;SDS011;72290;48.808;9.222;2024-03-23T16:02:05;1.60;;;1.37;;
466;SDS011;72290;48.808;9.222;2024-03-23T16:04:31;5.70;;;1.50;;
466;SDS011;72290;48.808;9.222;2024-03-23T16:06:57;5.57;;;1.50;;
466;SDS011;72290;48.808;9.222;2024-03-23T16:09:23;3.60;;;1.47;;
466;SDS011;72290;48.808;9.222;2024-03-23T16:11:49;8.90;;;2.03;;
466;SDS011;72290;48.808;9.222;2024-03-23T16:14:15;3.67;;;1.77;;
466;SDS011;72290;48.808;9.222;2024-03-23T16:16:41;1.63;;;1.50;;
466;SDS011;72290;48.808;9.222;2024-03-23T16:19:07;2.90;;;1.73;;
